Portada
METAR-TAF:

METAR-TAF

Aeroports :

Asyut, Egipte

latitud: 27-03N, longitud: 031-01E, altitud: 226 m

Observació

L'informe es va fer fa 1 hora i 7 minuts, a les 13:00 UTC
Vent 9 kt del Nord
Temperatura 24°C
Humitat 25%
Pressió 1018 hPa
Visibilitat 10 km o més
sense núvols per sota de 1500 mi sense presència de cumulonimbus.

METAR: HEAT 251300Z 01009KT CAVOK 24/03 Q1018 NOSIG

Hora: 16:07 (14:07 UTC)

Pronòstic

L'informe es va fer fa 3 hores i 7 minuts, a les 11:00 UTC
Pronòstic vàlid del 25 a les 12 UTC al 26 a les 18 UTC
Vent 12 kt del Nord
Visibilitat 10 km o més
sense núvols per sota de 1500 mi sense presència de cumulonimbus.

TAF: HEAT 251100Z 2512/2618 36012KT CAVOK

Observacions i pronòstics meteorològics de més de 4000 aeroports (METAR i TAF).

Les estacions disponibles són els punts grocs i vermells al mapa.

Posi el ratolí al punt desitjat per veure el nom de l'estació.

Feu clic per veure les observacions i els pronòstics meteorològics.

Per canviar el mapa: feu clic els botons verds amb una creu de color negre per apropar; al botó verd amb un guió per allunyar la imatge; o en les fletxes verdes per a mapes adjacents.


METAR-TAF: